createdAt,value
2023-01-31T14:20:46.873Z,1.73
2023-01-31T14:25:59.334Z,1.25
2023-01-31T14:30:52.589Z,1.58
2023-01-31T14:36:05.506Z,0.70
2023-01-31T14:41:09.471Z,1.50
2023-01-31T14:46:22.077Z,1.15
2023-01-31T14:51:25.895Z,0.75
2023-01-31T14:56:49.899Z,2.40
2023-01-31T15:01:41.530Z,1.42
2023-01-31T15:06:44.546Z,0.90
2023-01-31T15:11:50.822Z,1.02
2023-01-31T15:16:42.985Z,1.05
2023-01-31T15:21:40.386Z,1.33
2023-01-31T15:26:38.937Z,0.77
2023-01-31T15:31:47.418Z,0.90
2023-01-31T15:36:50.075Z,0.95
2023-01-31T15:41:42.925Z,1.13
2023-01-31T15:46:38.929Z,1.77
2023-01-31T15:51:31.816Z,1.10
2023-01-31T15:56:24.865Z,1.00
2023-01-31T16:01:24.406Z,0.90
2023-01-31T16:06:29.439Z,0.95
2023-01-31T16:11:25.294Z,1.80
2023-01-31T16:16:19.903Z,2.22
2023-01-31T16:21:34.122Z,0.85
2023-01-31T16:26:31.044Z,1.15
2023-01-31T16:31:28.678Z,1.52
2023-01-31T16:36:33.519Z,1.10
2023-01-31T16:41:45.028Z,1.30
2023-01-31T16:46:45.742Z,1.67
2023-01-31T16:51:45.686Z,2.22
2023-01-31T16:56:44.435Z,0.90
2023-01-31T17:01:40.039Z,2.30
2023-01-31T17:06:41.426Z,2.22
2023-01-31T17:11:42.946Z,3.43
2023-01-31T17:16:38.586Z,2.63
2023-01-31T17:21:32.054Z,2.23
2023-01-31T17:26:29.733Z,2.80
2023-01-31T17:31:29.965Z,3.42
2023-01-31T17:36:35.014Z,3.53
2023-01-31T17:41:30.865Z,2.83
2023-01-31T17:46:24.367Z,2.88
2023-01-31T17:51:19.433Z,4.17
2023-01-31T17:56:23.410Z,3.80
2023-01-31T18:01:25.719Z,3.15
2023-01-31T18:06:22.643Z,2.38
2023-01-31T18:11:31.572Z,2.50
2023-01-31T18:16:26.294Z,2.97
2023-01-31T18:21:32.249Z,2.88
2023-01-31T18:26:40.277Z,3.00
2023-01-31T18:31:49.468Z,2.85
2023-01-31T18:36:58.657Z,3.63
2023-01-31T18:41:59.174Z,3.35
2023-01-31T18:46:52.044Z,2.72
2023-01-31T18:51:53.724Z,2.40
2023-01-31T18:56:57.684Z,2.58
2023-01-31T19:02:08.461Z,3.80
2023-01-31T19:07:12.918Z,2.77
2023-01-31T19:12:23.618Z,7.63
2023-01-31T19:17:26.117Z,4.63
2023-01-31T19:22:18.329Z,3.67
2023-01-31T19:27:14.479Z,3.50
2023-01-31T19:32:13.576Z,3.28
2023-01-31T19:37:11.963Z,3.17
2023-01-31T19:42:07.935Z,4.10
2023-01-31T19:47:00.615Z,3.47
2023-01-31T19:51:51.115Z,3.08
2023-01-31T19:56:42.022Z,2.87
2023-01-31T20:01:36.730Z,3.22
2023-01-31T20:06:31.956Z,3.92
2023-01-31T20:11:25.711Z,3.25
2023-01-31T20:16:24.684Z,2.35
2023-01-31T20:21:26.523Z,3.10
2023-01-31T20:26:26.773Z,2.95
2023-01-31T20:31:35.832Z,2.20
2023-01-31T20:36:29.927Z,1.92
2023-01-31T20:41:27.181Z,3.40
2023-01-31T20:46:21.553Z,1.75
2023-01-31T20:51:27.161Z,2.45
2023-01-31T20:56:18.604Z,2.88
2023-01-31T21:01:20.744Z,1.60
2023-01-31T21:06:16.060Z,1.58
2023-01-31T21:11:18.416Z,1.75
2023-01-31T21:16:22.331Z,1.60
2023-01-31T21:21:23.436Z,1.60
2023-01-31T21:26:20.983Z,1.90
2023-01-31T21:31:22.217Z,1.73
2023-01-31T21:36:17.127Z,1.67
2023-01-31T21:41:26.910Z,1.10
2023-01-31T21:46:26.653Z,1.38
2023-01-31T21:51:32.753Z,1.45
2023-01-31T21:56:41.503Z,1.07
2023-01-31T22:01:45.471Z,1.40
2023-01-31T22:06:43.391Z,1.10
2023-01-31T22:11:40.213Z,1.10
2023-01-31T22:16:43.108Z,1.63
2023-01-31T22:21:36.581Z,1.60
2023-01-31T22:26:32.134Z,1.25
2023-01-31T22:31:29.678Z,0.80
2023-01-31T22:36:27.491Z,1.13
2023-01-31T22:41:22.579Z,1.30
2023-01-31T22:46:18.409Z,1.15
2023-01-31T22:51:15.362Z,1.17
2023-01-31T22:56:16.769Z,1.00
2023-01-31T23:01:21.812Z,1.67
2023-01-31T23:06:18.120Z,1.88
2023-01-31T23:11:16.839Z,1.65
2023-01-31T23:16:13.709Z,1.58
2023-01-31T23:21:20.649Z,1.23
2023-01-31T23:26:30.775Z,1.70
2023-01-31T23:31:29.584Z,2.58
2023-01-31T23:36:25.391Z,1.60
2023-01-31T23:41:21.695Z,1.70
2023-01-31T23:46:22.878Z,1.52
2023-01-31T23:51:14.648Z,1.40
2023-01-31T23:56:06.986Z,1.52
